createdAt,value
2018-10-21T00:02:28.367Z,16.73
2018-10-21T00:04:56.654Z,16.30
2018-10-21T00:07:24.906Z,17.23
2018-10-21T00:09:53.115Z,15.32
2018-10-21T00:12:21.364Z,16.32
2018-10-21T00:14:49.526Z,15.97
2018-10-21T00:17:17.776Z,16.12
2018-10-21T00:19:46.046Z,13.60
2018-10-21T00:22:15.089Z,17.07
2018-10-21T00:24:43.327Z,20.93
2018-10-21T00:27:11.613Z,16.95
2018-10-21T00:29:39.791Z,18.03
2018-10-21T00:32:07.992Z,17.53
2018-10-21T00:34:36.162Z,22.73
2018-10-21T00:37:04.762Z,18.60
2018-10-21T00:39:32.966Z,18.67
2018-10-21T00:42:01.179Z,20.08
2018-10-21T00:44:29.377Z,20.13
2018-10-21T00:46:57.581Z,17.23
2018-10-21T00:49:25.831Z,22.05
2018-10-21T00:51:54.062Z,20.50
2018-10-21T00:54:22.358Z,20.45
2018-10-21T00:56:50.556Z,21.60
2018-10-21T00:59:18.848Z,19.03
2018-10-21T01:01:47.057Z,22.25
2018-10-21T01:04:15.324Z,18.37
2018-10-21T01:06:43.490Z,17.82
2018-10-21T01:09:13.186Z,18.93
2018-10-21T01:11:42.341Z,22.15
2018-10-21T01:14:10.742Z,21.53
2018-10-21T01:16:38.947Z,17.83
2018-10-21T01:19:07.207Z,22.95
2018-10-21T01:21:36.022Z,20.07
2018-10-21T01:24:04.299Z,23.83
2018-10-21T01:26:32.503Z,19.07
2018-10-21T01:29:00.673Z,19.00
2018-10-21T01:31:28.859Z,21.03
2018-10-21T01:33:57.081Z,19.10
2018-10-21T01:36:25.644Z,20.07
2018-10-21T01:38:53.491Z,18.43
2018-10-21T01:41:21.717Z,21.23
2018-10-21T01:43:49.950Z,20.83
2018-10-21T01:46:18.178Z,19.52
2018-10-21T01:48:46.406Z,19.70
2018-10-21T01:51:14.746Z,22.00
2018-10-21T01:53:42.875Z,22.33
2018-10-21T01:56:11.066Z,21.67
2018-10-21T01:58:39.438Z,22.07
2018-10-21T02:01:07.646Z,19.73
2018-10-21T02:03:35.843Z,15.23
2018-10-21T02:06:04.019Z,24.53
2018-10-21T02:08:32.196Z,20.53
2018-10-21T02:11:00.379Z,24.03
2018-10-21T02:13:28.563Z,21.73
2018-10-21T02:15:56.800Z,28.80
2018-10-21T02:18:25.045Z,30.13
2018-10-21T02:20:53.222Z,24.17
2018-10-21T02:23:21.384Z,23.47
2018-10-21T02:25:49.614Z,24.37
2018-10-21T02:28:17.806Z,22.33
2018-10-21T02:30:46.015Z,28.40
2018-10-21T02:33:14.416Z,21.50
2018-10-21T02:35:42.517Z,25.30
2018-10-21T02:38:10.711Z,23.20
2018-10-21T02:42:01.447Z,24.93
2018-10-21T02:44:29.669Z,23.27
2018-10-21T02:46:58.315Z,22.13
2018-10-21T02:49:26.532Z,18.87
2018-10-21T02:52:00.269Z,25.07
2018-10-21T02:54:29.539Z,25.27
2018-10-21T02:56:57.767Z,24.77
2018-10-21T02:59:26.287Z,25.90
2018-10-21T03:01:54.691Z,21.70
2018-10-21T03:04:23.100Z,23.23
2018-10-21T03:06:51.586Z,26.40
2018-10-21T03:09:19.947Z,18.77
2018-10-21T03:11:48.036Z,23.30
2018-10-21T03:14:16.235Z,19.20
2018-10-21T03:16:44.442Z,25.23
2018-10-21T03:19:12.632Z,22.23
2018-10-21T03:21:40.824Z,23.13
2018-10-21T03:24:09.030Z,20.47
2018-10-21T03:26:37.191Z,20.03
2018-10-21T03:29:05.570Z,24.60
2018-10-21T03:31:33.727Z,21.47
2018-10-21T03:34:02.172Z,28.90
2018-10-21T03:36:30.204Z,24.50
2018-10-21T03:38:58.389Z,22.77
2018-10-21T03:41:26.551Z,22.53
2018-10-21T03:43:54.726Z,23.57
2018-10-21T03:46:22.900Z,18.97
2018-10-21T03:48:51.339Z,21.30
2018-10-21T03:51:19.514Z,22.13
2018-10-21T03:53:47.698Z,20.17
2018-10-21T03:56:15.859Z,22.83
2018-10-21T03:58:44.033Z,21.30
2018-10-21T04:01:12.207Z,22.03
2018-10-21T04:03:40.394Z,24.53
2018-10-21T04:06:08.568Z,23.33
2018-10-21T04:08:36.767Z,22.63
2018-10-21T04:11:04.986Z,18.33
2018-10-21T04:13:33.163Z,19.50
2018-10-21T04:16:01.421Z,17.27
2018-10-21T04:18:29.522Z,19.23
2018-10-21T04:20:57.675Z,18.47
2018-10-21T04:23:25.830Z,24.40
2018-10-21T04:25:53.979Z,21.77
2018-10-21T04:28:22.127Z,18.67
2018-10-21T04:30:50.306Z,22.07
2018-10-21T04:33:51.974Z,16.50
2018-10-21T04:36:24.832Z,17.27
2018-10-21T04:40:11.668Z,24.70
2018-10-21T04:42:39.723Z,18.47
2018-10-21T04:45:08.423Z,17.40
2018-10-21T04:47:36.578Z,19.50
2018-10-21T04:50:05.250Z,21.83
2018-10-21T04:52:33.880Z,23.57
2018-10-21T04:55:08.079Z,17.43
2018-10-21T04:57:37.235Z,22.17
2018-10-21T05:00:08.538Z,20.87
2018-10-21T05:02:36.706Z,19.13
2018-10-21T05:05:05.567Z,20.67
2018-10-21T05:07:33.797Z,21.80
2018-10-21T05:10:02.016Z,19.73
2018-10-21T05:12:30.288Z,16.47
2018-10-21T05:14:58.445Z,19.23
2018-10-21T05:17:26.639Z,21.77
2018-10-21T05:19:54.819Z,17.63
2018-10-21T05:22:23.028Z,18.40
2018-10-21T05:24:51.189Z,21.17
2018-10-21T05:27:19.363Z,24.30
2018-10-21T05:29:47.514Z,20.77
2018-10-21T05:32:15.678Z,20.80
2018-10-21T05:34:43.836Z,19.80
2018-10-21T05:37:11.990Z,19.17
2018-10-21T05:39:40.167Z,21.80
2018-10-21T05:42:08.348Z,21.33
2018-10-21T05:44:36.554Z,18.00
2018-10-21T05:47:05.153Z,22.07
2018-10-21T05:49:33.343Z,19.67
2018-10-21T05:52:01.625Z,21.70
2018-10-21T05:54:29.908Z,18.83
2018-10-21T05:56:58.267Z,17.33
2018-10-21T05:59:26.429Z,22.90
2018-10-21T06:01:54.694Z,20.03
2018-10-21T06:04:23.186Z,23.50
2018-10-21T06:06:51.451Z,21.23
2018-10-21T06:09:19.713Z,23.40
2018-10-21T06:11:47.998Z,22.43
2018-10-21T06:14:16.279Z,22.93
2018-10-21T06:16:49.996Z,20.17
2018-10-21T06:19:23.196Z,23.97
2018-10-21T06:21:51.388Z,23.80
2018-10-21T06:24:19.631Z,18.60
2018-10-21T06:26:47.839Z,19.03
2018-10-21T06:29:16.019Z,17.20
2018-10-21T06:31:44.170Z,20.13
2018-10-21T06:34:12.359Z,20.93
2018-10-21T06:36:40.678Z,23.37
2018-10-21T06:39:09.325Z,20.53
2018-10-21T06:41:37.486Z,20.37
2018-10-21T06:44:06.046Z,22.00
2018-10-21T06:46:34.294Z,17.67
2018-10-21T06:49:02.503Z,22.80
2018-10-21T06:51:30.758Z,16.70
2018-10-21T06:53:58.956Z,22.53
2018-10-21T06:56:27.170Z,19.73
2018-10-21T06:58:55.356Z,15.80
2018-10-21T07:01:23.534Z,20.00
2018-10-21T07:03:51.710Z,18.50
2018-10-21T07:06:27.470Z,22.63
2018-10-21T07:08:56.898Z,11.87
2018-10-21T07:11:25.109Z,19.20
2018-10-21T07:13:53.270Z,21.33
2018-10-21T07:16:21.522Z,23.00
2018-10-21T07:18:50.039Z,21.43
2018-10-21T07:21:18.491Z,19.33
2018-10-21T07:23:46.989Z,16.80
2018-10-21T07:26:15.270Z,17.23
2018-10-21T07:28:43.620Z,21.80
2018-10-21T07:31:11.899Z,15.20
2018-10-21T07:33:40.310Z,22.63
2018-10-21T07:36:08.596Z,20.77
2018-10-21T07:38:36.811Z,19.13
2018-10-21T07:41:05.069Z,19.53
2018-10-21T07:43:33.257Z,19.87
2018-10-21T07:46:03.127Z,18.00
2018-10-21T07:48:32.754Z,25.80
2018-10-21T07:51:00.959Z,21.90
2018-10-21T07:53:29.138Z,20.00
2018-10-21T07:55:57.391Z,27.37
2018-10-21T07:58:25.547Z,21.17
2018-10-21T08:00:54.535Z,21.80
2018-10-21T08:03:22.758Z,20.45
2018-10-21T08:06:02.395Z,18.00
2018-10-21T08:08:30.692Z,25.88
2018-10-21T08:10:58.798Z,16.20
2018-10-21T08:13:27.647Z,17.67
2018-10-21T08:15:55.852Z,23.15
2018-10-21T08:18:23.974Z,19.53
2018-10-21T08:20:52.159Z,19.27
2018-10-21T08:23:20.599Z,22.67
2018-10-21T08:25:50.100Z,21.17
2018-10-21T08:28:18.304Z,20.88
2018-10-21T08:30:46.563Z,19.92
2018-10-21T08:33:14.854Z,22.70
2018-10-21T08:35:43.123Z,25.97
2018-10-21T08:38:11.670Z,26.87
2018-10-21T08:40:40.318Z,27.27
2018-10-21T08:43:10.013Z,21.12
2018-10-21T08:45:38.994Z,20.32
2018-10-21T08:48:07.937Z,24.18
2018-10-21T08:50:36.274Z,19.20
2018-10-21T08:53:05.064Z,26.02
2018-10-21T08:55:33.263Z,23.65
2018-10-21T08:58:01.585Z,29.20
2018-10-21T09:00:30.090Z,28.27
2018-10-21T09:02:58.297Z,30.45
2018-10-21T09:05:26.659Z,32.40
2018-10-21T09:07:54.855Z,33.60
2018-10-21T09:10:23.331Z,29.32
2018-10-21T09:12:51.316Z,27.30
2018-10-21T09:15:19.496Z,29.00
2018-10-21T09:17:47.698Z,26.95
2018-10-21T09:20:17.822Z,32.40
2018-10-21T09:22:46.004Z,29.90
2018-10-21T09:25:14.848Z,36.15
2018-10-21T09:27:44.032Z,34.27
2018-10-21T09:30:14.955Z,28.75
2018-10-21T09:32:43.103Z,32.70
2018-10-21T09:35:13.978Z,29.07
2018-10-21T09:37:42.498Z,32.75
2018-10-21T09:40:12.922Z,31.87
2018-10-21T09:42:41.137Z,30.55
2018-10-21T09:45:10.964Z,33.83
2018-10-21T09:47:39.380Z,33.63
2018-10-21T09:50:07.638Z,31.23
2018-10-21T09:52:35.767Z,31.30
2018-10-21T09:55:04.118Z,29.20
2018-10-21T09:57:32.360Z,20.75
2018-10-21T10:00:00.540Z,24.55
2018-10-21T10:02:34.128Z,20.25
2018-10-21T10:05:02.316Z,26.68
2018-10-21T10:07:30.463Z,28.23
2018-10-21T10:09:58.701Z,25.27
2018-10-21T10:12:26.846Z,28.65
2018-10-21T10:14:55.072Z,20.40
2018-10-21T10:17:23.310Z,26.02
2018-10-21T10:19:51.598Z,22.55
2018-10-21T10:22:19.794Z,24.52
2018-10-21T10:24:47.971Z,22.75
2018-10-21T10:27:16.216Z,25.20
2018-10-21T10:29:44.404Z,25.23
2018-10-21T10:32:12.721Z,18.45
2018-10-21T10:34:40.902Z,22.32
2018-10-21T10:37:09.160Z,24.20
2018-10-21T10:39:37.335Z,22.50
2018-10-21T10:42:05.832Z,19.75
2018-10-21T10:44:33.786Z,20.95
2018-10-21T10:47:01.965Z,18.98
2018-10-21T10:49:30.191Z,18.15
2018-10-21T10:51:58.366Z,17.80
2018-10-21T10:54:26.528Z,20.88
2018-10-21T10:56:54.835Z,22.60
2018-10-21T10:59:23.033Z,18.45
2018-10-21T11:01:51.192Z,21.10
2018-10-21T11:04:19.491Z,21.05
2018-10-21T11:06:47.654Z,11.60
2018-10-21T11:09:15.808Z,13.83
2018-10-21T11:11:43.995Z,15.53
2018-10-21T11:14:12.203Z,12.65
2018-10-21T11:16:40.363Z,13.70
2018-10-21T11:19:08.638Z,14.07
2018-10-21T11:21:36.829Z,7.87
2018-10-21T11:24:04.978Z,13.50
2018-10-21T11:26:33.381Z,8.90
2018-10-21T11:29:01.863Z,13.22
2018-10-21T11:31:30.140Z,11.10
2018-10-21T11:33:58.383Z,13.50
2018-10-21T11:36:26.573Z,9.80
2018-10-21T11:39:03.526Z,13.75
2018-10-21T11:41:31.762Z,11.30
2018-10-21T11:43:59.998Z,11.48
2018-10-21T11:46:28.202Z,13.53
2018-10-21T11:48:56.411Z,10.60
2018-10-21T11:51:24.597Z,9.90
2018-10-21T11:53:52.778Z,11.45
2018-10-21T11:56:21.062Z,13.43
2018-10-21T11:58:49.264Z,7.70
2018-10-21T12:01:17.521Z,7.65
2018-10-21T12:03:45.603Z,12.73
2018-10-21T12:06:13.794Z,6.87
2018-10-21T12:08:42.030Z,11.63
2018-10-21T12:11:10.205Z,9.75
2018-10-21T12:13:38.394Z,10.00
2018-10-21T12:16:06.633Z,6.47
2018-10-21T12:18:34.778Z,11.10
2018-10-21T12:21:02.971Z,10.55
2018-10-21T12:23:31.213Z,8.93
2018-10-21T12:25:59.307Z,9.68
2018-10-21T12:28:28.225Z,4.55
2018-10-21T12:30:56.688Z,6.05
2018-10-21T12:33:24.819Z,9.75
2018-10-21T12:35:52.980Z,8.65
2018-10-21T12:38:21.207Z,8.33
2018-10-21T12:40:49.403Z,9.30
2018-10-21T12:43:17.613Z,8.75
2018-10-21T12:45:45.825Z,7.83
2018-10-21T12:48:14.635Z,6.80
2018-10-21T12:50:42.831Z,5.25
2018-10-21T12:53:11.137Z,6.25
2018-10-21T12:55:44.616Z,9.08
2018-10-21T12:58:13.015Z,6.60
2018-10-21T13:00:41.147Z,7.15
2018-10-21T13:03:09.386Z,5.85
2018-10-21T13:05:37.554Z,8.55
2018-10-21T13:08:05.763Z,7.75
2018-10-21T13:10:33.962Z,4.92
2018-10-21T13:13:02.284Z,7.42
2018-10-21T13:15:30.391Z,4.33
2018-10-21T13:17:58.686Z,12.28
2018-10-21T13:20:26.874Z,6.25
2018-10-21T13:22:55.127Z,9.10
2018-10-21T13:25:23.323Z,7.90
2018-10-21T13:27:51.536Z,5.37
2018-10-21T13:30:19.850Z,5.40
2018-10-21T13:32:48.027Z,6.62
2018-10-21T13:35:16.210Z,5.33
2018-10-21T13:37:44.455Z,6.33
2018-10-21T13:40:12.683Z,5.50
2018-10-21T13:42:40.822Z,5.05
2018-10-21T13:45:09.014Z,6.17
2018-10-21T13:47:37.202Z,5.75
2018-10-21T13:50:07.393Z,7.80
2018-10-21T13:52:35.690Z,8.20
2018-10-21T13:55:03.838Z,4.97
2018-10-21T13:57:32.093Z,5.12
2018-10-21T14:00:00.350Z,4.08
2018-10-21T14:02:28.512Z,8.00
2018-10-21T14:04:56.715Z,3.80
2018-10-21T14:07:24.944Z,6.35
2018-10-21T14:09:53.099Z,5.65
2018-10-21T14:12:21.392Z,5.33
2018-10-21T14:14:49.624Z,5.85
2018-10-21T14:17:17.747Z,5.05
2018-10-21T14:19:45.927Z,6.78
2018-10-21T14:22:14.559Z,3.80
2018-10-21T14:24:42.783Z,4.20
2018-10-21T14:27:10.878Z,6.50
2018-10-21T14:29:39.150Z,8.20
2018-10-21T14:32:07.351Z,5.05
2018-10-21T14:34:35.543Z,4.28
2018-10-21T14:37:03.828Z,5.85
2018-10-21T14:39:32.203Z,5.60
2018-10-21T14:42:00.492Z,7.78
2018-10-21T14:44:28.703Z,3.47
2018-10-21T14:46:56.945Z,2.50
2018-10-21T14:49:26.154Z,4.47
2018-10-21T14:51:54.346Z,6.55
2018-10-21T14:54:22.562Z,3.47
2018-10-21T14:56:50.780Z,5.97
2018-10-21T14:59:18.928Z,5.33
2018-10-21T15:01:47.143Z,5.37
2018-10-21T15:04:15.390Z,4.75
2018-10-21T15:06:43.519Z,5.50
2018-10-21T15:09:13.453Z,4.05
2018-10-21T15:11:42.108Z,5.53
2018-10-21T15:14:11.192Z,6.40
2018-10-21T15:16:39.617Z,7.33
2018-10-21T15:19:07.769Z,6.03
2018-10-21T15:21:36.279Z,6.67
2018-10-21T15:24:04.428Z,4.12
2018-10-21T15:26:32.723Z,7.55
2018-10-21T15:29:00.910Z,5.53
2018-10-21T15:31:29.075Z,6.00
2018-10-21T15:33:57.447Z,6.12
2018-10-21T15:36:25.713Z,4.35
2018-10-21T15:38:53.877Z,4.50
2018-10-21T15:41:22.083Z,5.12
2018-10-21T15:43:50.250Z,6.03
2018-10-21T15:46:18.514Z,7.70
2018-10-21T15:48:46.831Z,4.80
2018-10-21T15:51:14.975Z,5.33
2018-10-21T15:53:43.150Z,6.65
2018-10-21T15:56:11.402Z,6.53
2018-10-21T15:58:39.479Z,8.30
2018-10-21T16:01:07.642Z,9.35
2018-10-21T16:03:35.826Z,6.05
2018-10-21T16:06:03.987Z,5.80
2018-10-21T16:08:32.204Z,5.67
2018-10-21T16:11:00.405Z,5.22
2018-10-21T16:13:28.579Z,5.60
2018-10-21T16:15:56.786Z,8.33
2018-10-21T16:18:24.948Z,5.85
2018-10-21T16:20:53.124Z,6.40
2018-10-21T16:23:21.300Z,7.05
2018-10-21T16:25:49.549Z,9.95
2018-10-21T16:28:17.662Z,8.83
2018-10-21T16:30:45.803Z,6.92
2018-10-21T16:33:13.963Z,8.98
2018-10-21T16:35:42.160Z,9.85
2018-10-21T16:38:10.348Z,6.55
2018-10-21T16:40:38.714Z,7.12
2018-10-21T16:43:07.066Z,6.78
2018-10-21T16:45:35.306Z,7.22
2018-10-21T16:48:03.530Z,7.12
2018-10-21T16:50:31.681Z,6.47
2018-10-21T16:52:59.966Z,7.28
2018-10-21T16:55:28.142Z,10.08
2018-10-21T16:57:56.383Z,9.25
2018-10-21T17:00:24.722Z,9.60
2018-10-21T17:02:52.755Z,9.90
2018-10-21T17:05:20.928Z,10.08
2018-10-21T17:07:49.115Z,8.50
2018-10-21T17:10:17.783Z,6.60
2018-10-21T17:12:45.668Z,9.80
2018-10-21T17:15:13.866Z,7.40
2018-10-21T17:17:42.687Z,6.80
2018-10-21T17:20:13.554Z,6.62
2018-10-21T17:22:42.600Z,9.75
2018-10-21T17:25:10.965Z,9.43
2018-10-21T17:27:39.179Z,9.98
2018-10-21T17:30:09.899Z,11.93
2018-10-21T17:32:38.158Z,9.53
2018-10-21T17:35:07.027Z,10.60
2018-10-21T17:37:35.201Z,8.70
2018-10-21T17:40:03.455Z,12.65
2018-10-21T17:42:31.571Z,11.57
2018-10-21T17:44:59.742Z,13.75
2018-10-21T17:47:28.038Z,9.60
2018-10-21T17:49:56.414Z,10.43
2018-10-21T17:52:24.637Z,11.05
2018-10-21T17:54:52.762Z,10.18
2018-10-21T17:57:20.937Z,12.15
2018-10-21T17:59:49.171Z,10.50
2018-10-21T18:02:17.487Z,9.83
2018-10-21T18:04:45.660Z,9.90
2018-10-21T18:07:13.938Z,10.55
2018-10-21T18:09:42.043Z,12.98
2018-10-21T18:12:10.272Z,11.75
2018-10-21T18:14:38.466Z,10.90
2018-10-21T18:17:06.722Z,10.60
2018-10-21T18:19:34.898Z,11.45
2018-10-21T18:22:03.167Z,12.53
2018-10-21T18:24:31.274Z,13.15
2018-10-21T18:26:59.460Z,14.38
2018-10-21T18:29:27.809Z,10.90
2018-10-21T18:31:56.103Z,12.80
2018-10-21T18:34:24.286Z,11.75
2018-10-21T18:36:52.503Z,12.55
2018-10-21T18:39:20.690Z,14.55
2018-10-21T18:41:48.871Z,11.90
2018-10-21T18:44:19.892Z,11.63
2018-10-21T18:46:54.201Z,11.78
2018-10-21T18:52:26.889Z,12.47
2018-10-21T18:54:59.338Z,17.05
2018-10-21T18:57:44.080Z,14.00
2018-10-21T19:00:22.538Z,12.33
2018-10-21T19:03:15.081Z,14.70
2018-10-21T19:05:47.372Z,16.75
2018-10-21T19:08:18.225Z,13.48
2018-10-21T19:11:02.376Z,13.05
2018-10-21T19:13:33.186Z,11.15
2018-10-21T19:16:02.573Z,15.72
2018-10-21T19:18:38.592Z,15.08
2018-10-21T19:21:08.175Z,14.60
2018-10-21T19:23:39.865Z,15.93
2018-10-21T19:26:10.886Z,16.23
2018-10-21T19:28:44.624Z,14.45
2018-10-21T19:31:13.079Z,20.00
2018-10-21T19:33:41.769Z,12.45
2018-10-21T19:36:09.997Z,19.80
2018-10-21T19:38:38.517Z,18.50
2018-10-21T19:41:07.743Z,16.10
2018-10-21T19:43:35.974Z,15.48
2018-10-21T19:46:05.005Z,14.50
2018-10-21T19:48:33.179Z,15.00
2018-10-21T19:51:01.413Z,15.48
2018-10-21T19:53:29.666Z,16.12
2018-10-21T19:55:57.843Z,13.30
2018-10-21T19:58:26.037Z,11.63
2018-10-21T20:00:56.092Z,14.30
2018-10-21T20:03:24.206Z,15.10
2018-10-21T20:05:52.415Z,11.18
2018-10-21T20:08:20.606Z,13.78
2018-10-21T20:10:48.870Z,18.02
2018-10-21T20:13:17.129Z,12.10
2018-10-21T20:15:45.290Z,14.25
2018-10-21T20:18:14.465Z,11.50
2018-10-21T20:20:42.957Z,14.25
2018-10-21T20:23:11.119Z,16.52
2018-10-21T20:25:42.375Z,14.90
2018-10-21T20:28:10.664Z,15.80
2018-10-21T20:30:38.835Z,14.25
2018-10-21T20:33:07.144Z,15.85
2018-10-21T20:35:35.293Z,14.00
2018-10-21T20:38:03.460Z,13.38
2018-10-21T20:40:31.743Z,15.43
2018-10-21T20:42:59.962Z,17.00
2018-10-21T20:45:28.143Z,13.78
2018-10-21T20:47:56.325Z,13.72
2018-10-21T20:50:24.487Z,13.88
2018-10-21T20:52:52.715Z,14.05
2018-10-21T20:55:20.896Z,19.48
2018-10-21T20:57:49.102Z,12.43
2018-10-21T21:00:17.345Z,15.78
2018-10-21T21:02:45.470Z,14.00
2018-10-21T21:05:13.668Z,11.60
2018-10-21T21:07:41.915Z,16.25
2018-10-21T21:10:10.202Z,15.98
2018-10-21T21:12:38.314Z,14.43
2018-10-21T21:15:06.970Z,16.87
2018-10-21T21:17:35.133Z,13.68
2018-10-21T21:20:03.290Z,14.98
2018-10-21T21:22:31.442Z,15.05
2018-10-21T21:24:59.613Z,17.80
2018-10-21T21:27:27.778Z,13.75
2018-10-21T21:29:55.932Z,17.70
2018-10-21T21:32:24.090Z,15.72
2018-10-21T21:34:52.246Z,17.02
2018-10-21T21:37:20.419Z,14.07
2018-10-21T21:39:48.566Z,16.23
2018-10-21T21:42:16.845Z,13.60
2018-10-21T21:44:44.926Z,11.38
2018-10-21T21:47:13.094Z,13.30
2018-10-21T21:49:41.266Z,12.85
2018-10-21T21:52:09.441Z,14.00
2018-10-21T21:54:37.568Z,15.25
2018-10-21T21:57:05.759Z,16.00
2018-10-21T21:59:33.911Z,14.03
2018-10-21T22:02:02.062Z,14.38
2018-10-21T22:04:30.222Z,9.60
2018-10-21T22:06:58.394Z,13.25
2018-10-21T22:09:26.543Z,13.30
2018-10-21T22:11:54.705Z,12.95
2018-10-21T22:14:22.891Z,14.25
2018-10-21T22:16:51.115Z,12.53
2018-10-21T22:19:19.280Z,9.13
2018-10-21T22:21:47.466Z,13.25
2018-10-21T22:24:15.674Z,13.78
2018-10-21T22:26:43.812Z,12.23
2018-10-21T22:29:11.997Z,14.80
2018-10-21T22:31:40.222Z,12.47
2018-10-21T22:34:08.439Z,13.38
2018-10-21T22:36:36.491Z,12.07
2018-10-21T22:39:06.043Z,15.00
2018-10-21T22:41:34.219Z,12.98
2018-10-21T22:44:02.397Z,14.18
2018-10-21T22:46:30.584Z,11.53
2018-10-21T22:48:58.675Z,13.10
2018-10-21T22:51:26.952Z,11.63
2018-10-21T22:53:55.149Z,10.08
2018-10-21T22:56:23.300Z,11.63
2018-10-21T22:58:51.622Z,11.88
2018-10-21T23:01:19.788Z,14.15
2018-10-21T23:03:48.159Z,12.35
2018-10-21T23:06:16.369Z,13.43
2018-10-21T23:08:44.466Z,10.88
2018-10-21T23:11:12.690Z,14.30
2018-10-21T23:13:40.860Z,12.90
2018-10-21T23:16:09.426Z,11.03
2018-10-21T23:18:37.599Z,11.03
2018-10-21T23:21:05.999Z,11.12
2018-10-21T23:23:34.150Z,9.45
2018-10-21T23:26:02.306Z,10.18
2018-10-21T23:28:30.511Z,8.63
2018-10-21T23:30:58.685Z,11.50
2018-10-21T23:33:26.861Z,11.18
2018-10-21T23:35:55.007Z,10.35
2018-10-21T23:38:23.154Z,10.58
2018-10-21T23:40:51.395Z,12.37
2018-10-21T23:43:19.571Z,9.83
2018-10-21T23:45:47.719Z,13.53
2018-10-21T23:48:15.900Z,13.25
2018-10-21T23:50:44.034Z,13.68
2018-10-21T23:53:12.204Z,13.43
2018-10-21T23:55:40.351Z,10.18
2018-10-21T23:58:08.554Z,13.20
